createdAt,value
2022-12-25T00:02:24.867Z,11.02
2022-12-25T00:04:56.692Z,11.88
2022-12-25T00:07:28.268Z,11.64
2022-12-25T00:09:59.845Z,11.37
2022-12-25T00:12:31.465Z,12.07
2022-12-25T00:15:03.770Z,11.72
2022-12-25T00:17:35.422Z,11.32
2022-12-25T00:20:08.372Z,11.40
2022-12-25T00:22:39.972Z,11.91
2022-12-25T00:25:11.570Z,11.69
2022-12-25T00:27:43.180Z,11.22
2022-12-25T00:30:14.881Z,11.74
2022-12-25T00:32:46.456Z,12.13
2022-12-25T00:35:18.287Z,11.51
2022-12-25T00:37:49.863Z,10.98
2022-12-25T00:40:21.404Z,11.83
2022-12-25T00:42:53.052Z,11.60
2022-12-25T00:45:24.778Z,12.74
2022-12-25T00:47:56.508Z,13.40
2022-12-25T00:50:28.088Z,12.39
2022-12-25T00:52:59.721Z,11.65
2022-12-25T00:55:31.576Z,11.36
2022-12-25T00:58:03.178Z,11.36
2022-12-25T01:00:34.792Z,11.05
2022-12-25T01:03:06.520Z,10.71
2022-12-25T01:05:38.208Z,11.26
2022-12-25T01:08:10.212Z,11.88
2022-12-25T01:10:41.749Z,12.31
2022-12-25T01:13:13.296Z,11.84
2022-12-25T01:15:44.838Z,11.89
2022-12-25T01:18:16.374Z,11.97
2022-12-25T01:20:48.505Z,11.98
2022-12-25T01:23:20.068Z,12.11
2022-12-25T01:25:51.610Z,12.55
2022-12-25T01:28:23.174Z,12.17
2022-12-25T01:30:54.752Z,12.92
2022-12-25T01:33:28.081Z,12.81
2022-12-25T01:35:59.623Z,12.54
2022-12-25T01:38:31.199Z,12.33
2022-12-25T01:41:02.751Z,12.66
2022-12-25T01:43:34.797Z,12.87
2022-12-25T01:46:06.416Z,12.19
2022-12-25T01:48:39.622Z,12.54
2022-12-25T01:51:26.382Z,12.46
2022-12-25T01:54:04.876Z,12.28
2022-12-25T01:56:40.077Z,12.97
2022-12-25T01:59:17.403Z,12.02
2022-12-25T02:01:49.537Z,12.23
2022-12-25T02:04:42.048Z,12.23
2022-12-25T02:07:20.391Z,12.15
2022-12-25T02:09:53.274Z,12.66
2022-12-25T02:12:30.183Z,12.59
2022-12-25T02:15:15.494Z,12.41
2022-12-25T02:18:07.201Z,12.75
2022-12-25T02:21:04.922Z,12.88
2022-12-25T02:24:21.676Z,13.21
2022-12-25T02:26:56.121Z,13.38
2022-12-25T02:29:56.944Z,12.87
2022-12-25T02:32:52.608Z,12.99
2022-12-25T02:35:31.264Z,12.96
2022-12-25T02:38:12.217Z,12.72
2022-12-25T02:40:51.321Z,12.42
2022-12-25T02:43:43.265Z,12.65
2022-12-25T02:46:19.115Z,12.45
2022-12-25T02:48:59.254Z,12.45
2022-12-25T02:51:37.084Z,12.63
2022-12-25T02:54:17.392Z,12.88
2022-12-25T02:56:52.745Z,13.72
2022-12-25T02:59:28.674Z,13.43
2022-12-25T03:02:04.681Z,12.88
2022-12-25T03:04:39.033Z,13.00
2022-12-25T03:07:17.009Z,13.14
2022-12-25T03:10:00.949Z,13.68
2022-12-25T03:13:01.940Z,13.91
2022-12-25T03:15:34.720Z,14.03
2022-12-25T03:18:15.646Z,14.00
2022-12-25T03:20:47.183Z,13.90
2022-12-25T03:23:24.568Z,13.73
2022-12-25T03:25:56.210Z,13.85
2022-12-25T03:28:29.113Z,13.85
2022-12-25T03:31:18.417Z,13.76
2022-12-25T03:34:15.054Z,13.95
2022-12-25T03:37:00.214Z,14.17
2022-12-25T03:40:14.484Z,14.56
2022-12-25T03:42:59.778Z,14.87
2022-12-25T03:45:53.274Z,15.44
2022-12-25T03:48:30.632Z,15.68
2022-12-25T03:51:12.516Z,16.25
2022-12-25T03:53:56.128Z,16.18
2022-12-25T03:56:31.089Z,16.40
2022-12-25T03:59:02.856Z,16.91
2022-12-25T04:01:34.540Z,16.35
2022-12-25T04:04:06.228Z,16.81
2022-12-25T04:06:38.435Z,16.19
2022-12-25T04:09:09.960Z,16.89
2022-12-25T04:11:41.530Z,17.12
2022-12-25T04:14:14.049Z,17.32
2022-12-25T04:16:45.696Z,17.01
2022-12-25T04:19:17.236Z,16.89
2022-12-25T04:21:48.843Z,17.04
2022-12-25T04:24:20.447Z,17.28
2022-12-25T04:26:52.014Z,17.78
2022-12-25T04:29:23.614Z,17.70
2022-12-25T04:31:55.193Z,18.05
2022-12-25T04:34:29.588Z,18.69
2022-12-25T04:37:01.201Z,18.35
2022-12-25T04:39:32.778Z,19.13
2022-12-25T04:42:04.723Z,19.60
2022-12-25T04:44:36.283Z,18.91
2022-12-25T04:47:11.525Z,18.52
2022-12-25T04:49:43.413Z,18.30
2022-12-25T04:52:14.973Z,18.22
2022-12-25T04:54:46.534Z,18.87
2022-12-25T04:57:18.083Z,17.80
2022-12-25T04:59:49.698Z,17.55
2022-12-25T05:02:21.384Z,17.31
2022-12-25T05:04:53.183Z,17.22
2022-12-25T05:07:24.776Z,18.77
2022-12-25T05:09:56.400Z,19.25
2022-12-25T05:12:27.978Z,20.71
2022-12-25T05:14:59.571Z,21.61
2022-12-25T05:17:31.226Z,22.29
2022-12-25T05:20:03.588Z,22.79
2022-12-25T05:22:35.137Z,22.29
2022-12-25T05:25:07.058Z,22.97
2022-12-25T05:27:38.612Z,22.81
2022-12-25T05:30:10.424Z,23.34
2022-12-25T05:32:42.071Z,22.93
2022-12-25T05:35:14.022Z,21.32
2022-12-25T05:37:45.628Z,20.89
2022-12-25T05:40:17.312Z,20.21
2022-12-25T05:42:49.081Z,19.88
2022-12-25T05:45:20.745Z,19.84
2022-12-25T05:47:52.655Z,19.44
2022-12-25T05:50:24.332Z,18.67
2022-12-25T05:53:11.563Z,18.93
2022-12-25T05:55:43.914Z,18.83
2022-12-25T05:58:15.543Z,17.70
2022-12-25T06:00:47.102Z,17.47
2022-12-25T06:03:18.769Z,16.69
2022-12-25T06:05:50.533Z,15.84
2022-12-25T06:08:22.104Z,15.72
2022-12-25T06:10:53.685Z,15.54
2022-12-25T06:13:25.377Z,15.34
2022-12-25T06:15:57.090Z,14.52
2022-12-25T06:18:28.714Z,13.43
2022-12-25T06:21:00.242Z,11.50
2022-12-25T06:23:31.854Z,10.88
2022-12-25T06:26:10.267Z,8.89
2022-12-25T06:28:42.424Z,8.98
2022-12-25T06:31:17.478Z,9.07
2022-12-25T06:33:49.740Z,8.77
2022-12-25T06:36:27.358Z,9.07
2022-12-25T06:39:02.142Z,8.90
2022-12-25T06:41:33.860Z,8.76
2022-12-25T06:44:05.558Z,8.72
2022-12-25T06:46:37.127Z,7.75
2022-12-25T06:49:10.053Z,7.28
2022-12-25T06:51:41.607Z,6.00
2022-12-25T06:54:13.589Z,6.13
2022-12-25T06:56:45.135Z,5.65
2022-12-25T06:59:17.120Z,5.44
2022-12-25T07:01:55.860Z,5.23
2022-12-25T07:04:30.898Z,4.77
2022-12-25T07:07:08.355Z,5.06
2022-12-25T07:09:41.250Z,4.66
2022-12-25T07:12:19.455Z,4.76
2022-12-25T07:14:54.669Z,4.73
2022-12-25T07:17:26.445Z,4.66
2022-12-25T07:19:58.035Z,4.64
2022-12-25T07:22:29.991Z,4.94
2022-12-25T07:25:01.585Z,4.25
2022-12-25T07:27:33.346Z,4.51
2022-12-25T07:30:05.479Z,4.36
2022-12-25T07:32:37.060Z,4.66
2022-12-25T07:35:08.913Z,4.56
2022-12-25T07:37:40.635Z,4.86
2022-12-25T07:40:12.823Z,4.89
2022-12-25T07:42:44.388Z,5.12
2022-12-25T07:45:16.097Z,4.38
2022-12-25T07:47:47.766Z,4.28
2022-12-25T07:50:19.548Z,4.05
2022-12-25T07:52:51.127Z,3.77
2022-12-25T07:55:23.117Z,3.99
2022-12-25T07:57:54.733Z,4.08
2022-12-25T08:00:26.441Z,3.92
2022-12-25T08:02:59.353Z,4.18
2022-12-25T08:05:32.762Z,4.36
2022-12-25T08:08:04.460Z,4.73
2022-12-25T08:10:36.328Z,4.39
2022-12-25T08:13:14.216Z,4.26
2022-12-25T08:15:46.234Z,4.58
2022-12-25T08:18:17.805Z,5.11
2022-12-25T08:20:49.443Z,4.59
2022-12-25T08:23:21.047Z,4.27
2022-12-25T08:25:52.694Z,4.45
2022-12-25T08:28:24.374Z,4.41
2022-12-25T08:30:56.996Z,4.63
2022-12-25T08:33:28.660Z,5.01
2022-12-25T08:36:06.184Z,5.49
2022-12-25T08:38:38.939Z,5.89
2022-12-25T08:41:11.989Z,6.09
2022-12-25T08:43:44.158Z,6.14
2022-12-25T08:46:16.024Z,5.85
2022-12-25T08:48:49.254Z,5.56
2022-12-25T08:51:24.099Z,5.75
2022-12-25T08:54:00.121Z,6.24
2022-12-25T08:56:32.605Z,6.31
2022-12-25T08:59:04.224Z,6.78
2022-12-25T09:01:35.897Z,6.69
2022-12-25T09:04:07.614Z,7.59
2022-12-25T09:06:39.170Z,8.19
2022-12-25T09:09:10.879Z,8.47
2022-12-25T09:11:42.462Z,9.21
2022-12-25T09:14:14.492Z,10.91
2022-12-25T09:16:46.064Z,11.39
2022-12-25T09:19:17.607Z,15.37
2022-12-25T09:21:49.144Z,16.12
2022-12-25T09:24:20.761Z,16.65
2022-12-25T09:26:52.527Z,16.67
2022-12-25T09:29:24.113Z,16.78
2022-12-25T09:31:55.703Z,16.82
2022-12-25T09:34:27.301Z,16.54
2022-12-25T09:36:58.885Z,15.35
2022-12-25T09:39:30.439Z,15.26
2022-12-25T09:42:10.711Z,14.70
2022-12-25T09:44:55.206Z,14.22
2022-12-25T09:47:31.560Z,14.85
2022-12-25T09:50:07.092Z,15.78
2022-12-25T09:52:50.983Z,15.75
2022-12-25T09:55:25.938Z,16.74
2022-12-25T09:58:01.492Z,16.37
2022-12-25T10:00:54.412Z,16.06
2022-12-25T10:03:28.757Z,16.54
2022-12-25T10:06:18.487Z,16.98
2022-12-25T10:09:02.042Z,15.42
2022-12-25T10:11:51.823Z,14.93
2022-12-25T10:14:29.184Z,14.34
2022-12-25T10:17:11.304Z,14.32
2022-12-25T10:20:07.516Z,14.32
2022-12-25T10:22:47.732Z,15.54
2022-12-25T10:25:25.007Z,15.20
2022-12-25T10:28:10.588Z,15.64
2022-12-25T10:30:43.992Z,15.50
2022-12-25T10:33:17.394Z,16.59
2022-12-25T10:35:49.813Z,17.50
2022-12-25T10:38:22.490Z,16.46
2022-12-25T10:41:12.747Z,18.46
2022-12-25T10:43:55.788Z,19.26
2022-12-25T10:46:29.536Z,20.15
2022-12-25T10:49:03.136Z,20.00
2022-12-25T10:51:38.215Z,19.41
2022-12-25T10:54:22.974Z,18.26
2022-12-25T10:56:57.219Z,17.81
2022-12-25T10:59:34.065Z,18.74
2022-12-25T11:02:18.645Z,18.44
2022-12-25T11:04:52.475Z,18.25
2022-12-25T11:07:26.393Z,18.36
2022-12-25T11:10:05.909Z,17.58
2022-12-25T11:12:44.882Z,17.99
2022-12-25T11:15:40.231Z,18.39
2022-12-25T11:18:48.793Z,18.95
2022-12-25T11:21:28.353Z,19.82
2022-12-25T11:24:02.070Z,20.45
2022-12-25T11:26:48.336Z,20.62
2022-12-25T11:29:28.961Z,20.78
2022-12-25T11:32:04.214Z,21.12
2022-12-25T11:34:42.506Z,21.06
2022-12-25T11:37:29.458Z,20.64
2022-12-25T11:40:02.027Z,19.53
2022-12-25T11:42:41.755Z,19.55
2022-12-25T11:45:37.467Z,20.07
2022-12-25T11:48:19.380Z,20.00
2022-12-25T11:51:03.382Z,19.84
2022-12-25T11:53:43.616Z,19.95
2022-12-25T11:56:20.503Z,18.58
2022-12-25T11:59:10.475Z,16.76
2022-12-25T12:01:49.178Z,16.47
2022-12-25T12:04:36.898Z,16.56
2022-12-25T12:07:27.324Z,16.50
2022-12-25T12:10:23.055Z,16.38
2022-12-25T12:13:00.134Z,16.51
2022-12-25T12:15:51.332Z,16.70
2022-12-25T12:18:26.006Z,14.89
2022-12-25T12:21:19.894Z,14.97
2022-12-25T12:24:01.210Z,13.97
2022-12-25T12:26:37.671Z,13.74
2022-12-25T12:29:25.600Z,11.96
2022-12-25T12:32:01.662Z,10.29
2022-12-25T12:34:42.789Z,10.01
2022-12-25T12:37:34.253Z,9.96
2022-12-25T12:40:21.955Z,9.76
2022-12-25T12:42:54.821Z,9.97
2022-12-25T12:45:32.326Z,9.92
2022-12-25T12:48:24.803Z,9.44
2022-12-25T12:51:05.774Z,9.46
2022-12-25T12:53:42.567Z,9.29
2022-12-25T12:56:19.875Z,9.06
2022-12-25T12:58:51.497Z,9.50
2022-12-25T13:01:35.270Z,9.58
2022-12-25T13:04:31.400Z,9.14
2022-12-25T13:07:16.849Z,9.09
2022-12-25T13:10:13.455Z,8.98
2022-12-25T13:12:45.522Z,9.15
2022-12-25T13:15:19.375Z,8.99
2022-12-25T13:17:51.422Z,9.41
2022-12-25T13:20:40.487Z,9.32
2022-12-25T13:23:29.097Z,8.77
2022-12-25T13:26:18.912Z,8.87
2022-12-25T13:28:50.475Z,8.50
2022-12-25T13:31:27.825Z,8.41
2022-12-25T13:34:20.100Z,8.49
2022-12-25T13:36:51.706Z,8.92
2022-12-25T13:39:23.669Z,9.15
2022-12-25T13:41:55.508Z,8.88
2022-12-25T13:44:31.059Z,9.12
2022-12-25T13:47:30.668Z,9.32
2022-12-25T13:50:30.299Z,9.28
2022-12-25T13:53:13.902Z,9.44
2022-12-25T13:55:51.833Z,9.43
2022-12-25T13:58:28.750Z,9.62
2022-12-25T14:01:03.359Z,10.16
2022-12-25T14:03:37.656Z,10.33
2022-12-25T14:06:15.092Z,9.49
2022-12-25T14:08:48.508Z,9.27
2022-12-25T14:11:24.172Z,9.99
2022-12-25T14:14:03.763Z,10.59
2022-12-25T14:16:36.166Z,10.79
2022-12-25T14:19:30.039Z,10.34
2022-12-25T14:22:19.183Z,9.86
2022-12-25T14:24:51.278Z,9.91
2022-12-25T14:27:29.010Z,9.84
2022-12-25T14:30:00.873Z,10.20
2022-12-25T14:32:43.337Z,10.16
2022-12-25T14:35:23.072Z,10.12
2022-12-25T14:38:00.231Z,10.16
2022-12-25T14:40:33.558Z,10.13
2022-12-25T14:43:23.470Z,10.19
2022-12-25T14:46:00.714Z,10.24
2022-12-25T14:48:33.421Z,10.02
2022-12-25T14:51:14.856Z,9.83
2022-12-25T14:53:51.587Z,10.59
2022-12-25T14:56:26.445Z,10.21
2022-12-25T14:58:59.745Z,9.46
2022-12-25T15:01:39.005Z,10.10
2022-12-25T15:04:10.613Z,10.14
2022-12-25T15:06:58.489Z,9.59
2022-12-25T15:09:30.213Z,9.78
2022-12-25T15:12:02.204Z,10.66
2022-12-25T15:14:33.769Z,10.47
2022-12-25T15:17:05.391Z,10.09
2022-12-25T15:19:38.994Z,9.88
2022-12-25T15:22:13.121Z,10.15
2022-12-25T15:24:48.720Z,10.75
2022-12-25T15:27:20.331Z,11.18
2022-12-25T15:32:43.559Z,11.16
2022-12-25T15:35:18.788Z,11.41
2022-12-25T15:37:50.367Z,12.08
2022-12-25T15:40:21.946Z,12.16
2022-12-25T15:42:56.301Z,12.29
2022-12-25T15:45:29.880Z,12.16
2022-12-25T15:48:01.527Z,11.69
2022-12-25T15:50:33.174Z,12.38
2022-12-25T15:53:04.829Z,13.33
2022-12-25T15:55:36.380Z,13.24
2022-12-25T15:58:13.129Z,12.95
2022-12-25T16:00:44.871Z,12.29
2022-12-25T16:03:16.498Z,11.67
2022-12-25T16:05:48.396Z,12.15
2022-12-25T16:08:20.112Z,12.44
2022-12-25T16:10:51.711Z,12.55
2022-12-25T16:13:23.265Z,11.97
2022-12-25T16:15:54.862Z,12.31
2022-12-25T16:18:26.648Z,12.58
2022-12-25T16:20:59.656Z,12.91
2022-12-25T16:23:31.432Z,13.69
2022-12-25T16:26:03.054Z,14.56
2022-12-25T16:28:34.604Z,14.31
2022-12-25T16:31:06.775Z,14.67
2022-12-25T16:33:38.508Z,16.08
2022-12-25T16:36:10.085Z,16.67
2022-12-25T16:38:42.045Z,16.15
2022-12-25T16:41:14.132Z,15.98
2022-12-25T16:43:45.813Z,15.88
2022-12-25T16:46:20.728Z,15.88
2022-12-25T16:48:52.426Z,15.48
2022-12-25T16:51:24.070Z,15.36
2022-12-25T16:53:55.869Z,16.51
2022-12-25T16:56:27.473Z,15.77
2022-12-25T16:58:59.646Z,15.22
2022-12-25T17:01:31.388Z,14.69
2022-12-25T17:04:03.154Z,15.70
2022-12-25T17:06:35.168Z,16.36
2022-12-25T17:09:07.272Z,15.98
2022-12-25T17:11:38.860Z,15.71
2022-12-25T17:14:10.759Z,14.87
2022-12-25T17:16:42.573Z,14.46
2022-12-25T17:19:23.129Z,14.68
2022-12-25T17:21:54.710Z,14.26
2022-12-25T17:24:27.224Z,14.33
2022-12-25T17:26:58.790Z,13.83
2022-12-25T17:29:30.514Z,14.74
2022-12-25T17:32:02.362Z,15.19
2022-12-25T17:34:34.115Z,16.16
2022-12-25T17:37:05.795Z,16.87
2022-12-25T17:39:37.360Z,17.20
2022-12-25T17:42:10.087Z,15.65
2022-12-25T17:44:41.657Z,16.59
2022-12-25T17:47:13.241Z,15.11
2022-12-25T17:49:46.362Z,15.31
2022-12-25T17:52:17.978Z,15.29
2022-12-25T17:54:49.571Z,15.67
2022-12-25T17:57:21.176Z,15.54
2022-12-25T17:59:52.719Z,16.94
2022-12-25T18:02:24.539Z,17.77
2022-12-25T18:04:56.835Z,18.17
2022-12-25T18:07:28.372Z,17.08
2022-12-25T18:09:59.947Z,16.68
2022-12-25T18:12:31.561Z,16.86
2022-12-25T18:15:03.473Z,17.23
2022-12-25T18:17:35.096Z,17.55
2022-12-25T18:20:07.329Z,18.24
2022-12-25T18:22:38.880Z,18.75
2022-12-25T18:25:10.484Z,18.80
2022-12-25T18:27:42.099Z,19.25
2022-12-25T18:30:13.835Z,18.35
2022-12-25T18:32:45.417Z,18.95
2022-12-25T18:35:17.005Z,18.60
2022-12-25T18:37:48.635Z,18.95
2022-12-25T18:40:20.275Z,18.61
2022-12-25T18:42:56.284Z,18.42
2022-12-25T18:45:31.039Z,18.59
2022-12-25T18:48:03.129Z,18.86
2022-12-25T18:50:40.038Z,18.08
2022-12-25T18:53:11.598Z,17.77
2022-12-25T18:55:43.175Z,18.06
2022-12-25T18:58:14.722Z,17.62
2022-12-25T19:00:46.442Z,17.86
2022-12-25T19:03:18.388Z,17.69
2022-12-25T19:05:49.984Z,17.44
2022-12-25T19:08:21.672Z,17.42
2022-12-25T19:10:53.230Z,16.83
2022-12-25T19:13:24.835Z,17.67
2022-12-25T19:15:59.958Z,17.98
2022-12-25T19:18:31.921Z,16.31
2022-12-25T19:21:05.336Z,16.55
2022-12-25T19:23:37.269Z,16.36
2022-12-25T19:26:10.466Z,16.18
2022-12-25T19:28:42.045Z,18.10
2022-12-25T19:31:14.043Z,21.97
2022-12-25T19:33:45.667Z,25.19
2022-12-25T19:36:17.355Z,22.34
2022-12-25T19:38:48.922Z,19.92
2022-12-25T19:41:20.636Z,18.85
2022-12-25T19:43:52.647Z,18.74
2022-12-25T19:46:31.945Z,18.00
2022-12-25T19:49:04.121Z,20.67
2022-12-25T19:51:38.576Z,21.60
2022-12-25T19:54:14.614Z,20.09
2022-12-25T19:56:46.741Z,20.13
2022-12-25T19:59:18.329Z,19.20
2022-12-25T20:01:50.597Z,19.20
2022-12-25T20:04:22.663Z,19.75
2022-12-25T20:06:54.196Z,18.15
2022-12-25T20:09:25.804Z,17.72
2022-12-25T20:11:57.339Z,19.44
2022-12-25T20:14:28.964Z,17.48
2022-12-25T20:17:00.728Z,17.26
2022-12-25T20:19:32.356Z,18.25
2022-12-25T20:22:05.015Z,21.88
2022-12-25T20:24:36.560Z,22.23
2022-12-25T20:27:08.129Z,21.35
2022-12-25T20:29:39.697Z,19.41
2022-12-25T20:32:11.396Z,18.82
2022-12-25T20:34:43.070Z,17.16
2022-12-25T20:37:14.654Z,16.27
2022-12-25T20:39:46.238Z,16.14
2022-12-25T20:42:17.803Z,15.72
2022-12-25T20:44:49.529Z,16.23
2022-12-25T20:47:21.119Z,16.61
2022-12-25T20:49:52.692Z,16.35
2022-12-25T20:52:24.417Z,15.99
2022-12-25T20:54:56.032Z,15.84
2022-12-25T20:57:27.634Z,16.05
2022-12-25T20:59:59.198Z,16.11
2022-12-25T21:02:34.635Z,15.79
2022-12-25T21:05:08.240Z,15.77
2022-12-25T21:07:39.814Z,16.81
2022-12-25T21:10:11.553Z,16.98
2022-12-25T21:12:43.085Z,16.09
2022-12-25T21:15:15.860Z,16.16
2022-12-25T21:17:47.626Z,16.50
2022-12-25T21:20:19.196Z,17.28
2022-12-25T21:22:50.719Z,17.47
2022-12-25T21:25:22.244Z,17.81
2022-12-25T21:27:54.008Z,16.78
2022-12-25T21:30:25.730Z,17.04
2022-12-25T21:32:57.344Z,16.86
2022-12-25T21:35:28.964Z,16.60
2022-12-25T21:38:00.559Z,17.55
2022-12-25T21:40:35.172Z,17.51
2022-12-25T21:43:06.946Z,17.17
2022-12-25T21:45:38.525Z,16.66
2022-12-25T21:48:10.142Z,16.86
2022-12-25T21:50:41.714Z,17.18
2022-12-25T21:53:17.889Z,15.75
2022-12-25T21:56:00.566Z,17.85
2022-12-25T21:58:32.257Z,16.93
2022-12-25T22:01:04.246Z,15.47
2022-12-25T22:03:36.146Z,15.84
2022-12-25T22:06:07.787Z,15.60
2022-12-25T22:08:39.342Z,16.00
2022-12-25T22:11:10.921Z,17.53
2022-12-25T22:13:42.608Z,17.06
2022-12-25T22:16:14.271Z,17.53
2022-12-25T22:18:46.077Z,16.91
2022-12-25T22:21:19.071Z,16.59
2022-12-25T22:23:51.121Z,16.18
2022-12-25T22:26:22.672Z,16.08
2022-12-25T22:28:54.570Z,15.61
2022-12-25T22:31:26.379Z,15.20
2022-12-25T22:34:00.949Z,13.47
2022-12-25T22:36:32.509Z,14.44
2022-12-25T22:39:04.101Z,14.13
2022-12-25T22:41:35.782Z,13.78
2022-12-25T22:44:17.080Z,13.14
2022-12-25T22:46:49.813Z,13.29
2022-12-25T22:49:21.642Z,13.32
2022-12-25T22:51:53.837Z,14.23
2022-12-25T22:54:29.631Z,13.21
2022-12-25T22:57:01.257Z,14.34
2022-12-25T22:59:33.200Z,15.56
2022-12-25T23:02:04.916Z,16.36
2022-12-25T23:04:36.748Z,15.63
2022-12-25T23:07:08.356Z,14.93
2022-12-25T23:09:41.963Z,14.33
2022-12-25T23:12:13.556Z,15.26
2022-12-25T23:14:45.111Z,14.85
2022-12-25T23:17:16.666Z,14.94
2022-12-25T23:19:48.217Z,14.71
2022-12-25T23:22:19.808Z,15.27
2022-12-25T23:24:51.382Z,15.55
2022-12-25T23:27:22.984Z,15.06
2022-12-25T23:29:54.637Z,14.70
2022-12-25T23:32:26.708Z,13.85
2022-12-25T23:34:58.312Z,13.24
2022-12-25T23:37:30.051Z,13.18
2022-12-25T23:40:02.846Z,13.93
2022-12-25T23:42:34.450Z,13.80
2022-12-25T23:45:06.522Z,13.32
2022-12-25T23:47:38.107Z,13.16
2022-12-25T23:50:09.779Z,13.18
2022-12-25T23:52:41.333Z,12.42
2022-12-25T23:55:12.911Z,12.37
2022-12-25T23:57:44.484Z,13.28
